FYGA4: White River At Fayetteville, AR

                                SHEF ID:       FYGA4     White River near Fayetteville, A
STATION TYPE: Stream Gauge

PRECIP STAGE RIV-FLOW WTR-TEMP DIS-OXY PH CONDUCT BAT-LOAD
in ft cfs F mg/l su umho/cm volt
Ccp-Rev Ccp-Rev Ccp-Rev Ccp-Rev Ccp-Rev Ccp-Rev Ccp-Rev Ccp-Rev
(America/Chicago)
08/05 00:00 0.00 0.90 0 85.59 4.66 7.62 287 12.73
08/05 01:00 0.00 0.90 0 84.79 4.32 7.57 287 12.73
08/05 02:00 0.01 0.90 0 83.53 3.96 7.55 288 12.65
08/05 03:00 0.00 0.89 0 82.76 3.78 7.54 288 12.65
08/05 04:00 0.00 0.89 0 82.00 3.64 7.52 289 12.65
08/05 05:00 0.00 0.89 0 81.19 3.47 7.52 289 12.57
08/05 06:00 0.00 0.89 0 80.58 3.04 7.50 290 12.57
08/05 07:00 0.00 0.89 0 80.11 3.75 7.53 290 12.57
08/05 08:00 0.00 0.88 0 79.68 3.69 7.51 290 12.65
08/05 09:00 0.00 0.88 0 79.36 3.94 7.55 290 13.44
08/05 10:00 0.00 0.88 0 79.50 4.04 7.53 291 13.53
08/05 11:00 0.07 0.88 0 82.45 6.12 7.71 290 13.53
08/05 12:00 0.00 0.88 0 85.60 6.93 7.82 288 13.44
08/05 13:00 0.00 0.88 0 89.19 8.64 8.04 285 13.29
08/05 14:00 0.00 0.88 0 92.77 10.27 8.31 282 13.37
08/05 15:00 0.00 0.88 0 93.81 10.65 8.42 280 13.13
08/05 16:00 0.00 0.88 0 93.78 10.66 8.43 279 13.21
08/05 17:00 0.00 0.88 0 94.28 9.54 8.31 279 13.21
08/05 18:00 0.00 0.88 0 94.28 10.67 8.37 277 13.05
08/05 19:00 0.00 0.88 0 92.93 10.72 8.39 274 12.97
08/05 20:00 0.00 0.88 0 90.90 9.58 8.27 279 12.89
08/05 21:00 0.00 0.88 0 89.24 7.95 8.06 281 12.81
08/05 22:00 0.00 0.89 0 87.89 6.39 7.85 284 12.81
08/05 23:00 ---- ---- ---- ---- ---- ---- ---- ----
Data processed at Tue 06Aug2024 04:10 GMT

Parsing this webpage?

Checkout our new Data API! CWMSDataAPI (CDA)

Timeseries IDs (TSIDs)

TSIDs used from left to right in the data table
FAYE.Precip-Inc.Total.1Hour.1Hour.Ccp-Rev
FAYE.Stage.Inst.1Hour.0.Ccp-Rev
FAYE.Flow.Inst.1Hour.0.Ccp-Rev
FAYE.Temp-Water.Inst.1Hour.0.Ccp-Rev
FAYE.Conc-DO.Inst.1Hour.0.Ccp-Rev
FAYE.pH.Inst.1Hour.0.Ccp-Rev
FAYE.Cond-Water.Inst.1Hour.0.Ccp-Rev
FAYE.Volt-Battery Load.Inst.1Hour.0.Ccp-Rev

                            

All information presented herein is the property of the government of the United States of America and may be revised or deleted at any time without prior notice. Dissemination of this information without the expressed written consent of the Public Affairs Office, Tulsa District U.S. Army Corps of Engineers is strictly prohibited. These data are gathered electronically and, as presented, have NOT undergone any form of quality control. These data are NOT guaranteed to be valid or correct.